Time,TemperatureF,DewpointF,PressureIn,WindDirection,WindDirectionDegrees,WindSpeedMPH,WindSpeedGustMPH,Humidity,HourlyPrecipIn,Conditions,Clouds,dailyrainin,SoftwareType,DateUTC
2013-07-02 00:01:00,73.5,70.7,29.94,South,179,9.2,9.2,91,0.00,RA,,0.00,WeatherDisplay:10.37,2013-07-02 04:01:00,
2013-07-02 00:02:00,73.5,70.7,29.94,SW,223,9.0,9.0,91,0.00,RA,,0.00,WeatherDisplay:10.37,2013-07-02 04:02:00,
2013-07-02 00:07:00,73.5,70.4,29.94,South,186,2.3,2.3,90,0.00,RA,,0.00,WeatherDisplay:10.37,2013-07-02 04:07:00,
2013-07-02 00:12:00,73.5,70.4,29.95,SW,217,3.5,3.5,90,0.00,CLR,,0.00,WeatherDisplay:10.37,2013-07-02 04:12:00,
2013-07-02 00:17:00,73.4,70.3,29.95,SW,217,0.0,0.0,90,0.00,CLR,,0.00,WeatherDisplay:10.37,2013-07-02 04:17:00,
2013-07-02 00:22:00,73.5,70.4,29.95,SW,230,3.5,3.5,90,0.00,CLR,,0.00,WeatherDisplay:10.37,2013-07-02 04:22:00,
2013-07-02 00:27:00,73.5,70.4,29.95,West,260,3.5,3.5,90,0.00,CLR,,0.00,WeatherDisplay:10.37,2013-07-02 04:27:00,
2013-07-02 00:32:00,73.5,70.4,29.95,SSE,159,10.4,10.4,90,0.00,CLR,,0.00,WeatherDisplay:10.37,2013-07-02 04:32:00,
2013-07-02 00:37:00,73.5,70.4,29.95,SSE,157,6.0,6.0,90,0.00,CLR,,0.00,WeatherDisplay:10.37,2013-07-02 04:37:00,
2013-07-02 00:42:00,73.4,70.3,29.95,SW,218,3.5,3.5,90,0.00,CLR,,0.00,WeatherDisplay:10.37,2013-07-02 04:42:00,
2013-07-02 00:47:00,73.4,70.3,29.95,South,172,3.5,3.5,90,0.00,CLR,,0.00,WeatherDisplay:10.37,2013-07-02 04:47:00,
2013-07-02 00:52:00,73.4,70.3,29.95,West,260,3.5,3.5,90,0.00,CLR,,0.00,WeatherDisplay:10.37,2013-07-02 04:52:00,
2013-07-02 00:57:00,73.3,70.2,29.95,SSE,153,0.0,0.0,90,0.00,CLR,,0.00,WeatherDisplay:10.37,2013-07-02 04:57:00,
2013-07-02 01:02:00,73.3,70.2,29.95,SSE,159,0.0,0.0,90,0.00,CLR,,0.00,WeatherDisplay:10.37,2013-07-02 05:02:00,
2013-07-02 01:07:00,73.3,70.2,29.95,West,269,3.0,3.0,90,0.00,CLR,,0.00,WeatherDisplay:10.37,2013-07-02 05:07:00,
2013-07-02 01:12:00,73.2,70.1,29.95,WSW,244,5.8,5.8,90,0.00,CLR,,0.00,WeatherDisplay:10.37,2013-07-02 05:12:00,
2013-07-02 01:17:00,73.1,70.3,29.95,SSW,202,0.0,0.4,91,0.00,CLR,,0.00,WeatherDisplay:10.37,2013-07-02 05:17:00,
2013-07-02 01:22:00,73.0,70.2,29.95,SSW,205,2.3,0.0,91,0.00,CLR,,0.00,WeatherDisplay:10.37,2013-07-02 05:22:00,
2013-07-02 01:27:00,72.9,70.1,29.95,SE,137,3.5,3.5,91,0.00,CLR,,0.00,WeatherDisplay:10.37,2013-07-02 05:27:00,
2013-07-02 01:32:00,72.9,70.1,29.95,SW,223,0.0,0.0,91,0.00,CLR,,0.00,WeatherDisplay:10.37,2013-07-02 05:32:00,
2013-07-02 01:37:00,72.8,70.0,29.95,East,86,0.0,0.0,91,0.00,CLR,,0.00,WeatherDisplay:10.37,2013-07-02 05:37:00,
2013-07-02 01:42:00,72.7,69.9,29.95,WSW,252,5.0,5.0,91,0.00,CLR,,0.00,WeatherDisplay:10.37,2013-07-02 05:42:00,
2013-07-02 01:47:00,72.6,69.8,29.95,WSW,244,1.2,0.0,91,0.00,CLR,,0.00,WeatherDisplay:10.37,2013-07-02 05:47:00,
2013-07-02 01:52:00,72.6,69.8,29.95,WSW,244,0.0,0.0,91,0.00,CLR,,0.00,WeatherDisplay:10.37,2013-07-02 05:52:00,
2013-07-02 01:57:00,72.6,70.1,29.95,SW,216,3.5,3.5,92,0.00,CLR,,0.00,WeatherDisplay:10.37,2013-07-02 05:57:00,
2013-07-02 02:02:00,72.6,70.1,29.95,SSW,213,3.5,3.5,92,0.00,CLR,,0.00,WeatherDisplay:10.37,2013-07-02 06:02:00,
2013-07-02 02:07:00,72.6,70.1,29.95,SSW,213,1.2,1.2,92,0.00,CLR,,0.00,WeatherDisplay:10.37,2013-07-02 06:07:00,
2013-07-02 02:12:00,72.6,70.1,29.95,SE,130,2.3,0.0,92,0.00,CLR,,0.00,WeatherDisplay:10.37,2013-07-02 06:12:00,
2013-07-02 02:17:00,72.6,70.1,29.95,SE,128,2.3,2.3,92,0.00,CLR,,0.00,WeatherDisplay:10.37,2013-07-02 06:17:00,
2013-07-02 02:22:00,72.6,70.1,29.95,ESE,106,4.0,4.0,92,0.00,CLR,,0.00,WeatherDisplay:10.37,2013-07-02 06:22:00,
2013-07-02 02:42:00,72.5,70.0,29.94,SE,134,5.8,5.8,92,0.00,CLR,,0.00,WeatherDisplay:10.37,2013-07-02 06:42:00,
2013-07-02 02:47:00,72.5,70.0,29.94,SSW,201,3.5,3.5,92,0.00,CLR,,0.00,WeatherDisplay:10.37,2013-07-02 06:47:00,
2013-07-02 02:52:00,72.5,70.0,29.95,WSW,246,3.5,0.0,92,0.00,CLR,,0.00,WeatherDisplay:10.37,2013-07-02 06:52:00,
2013-07-02 02:57:00,72.5,70.0,29.95,WSW,246,1.0,1.0,92,0.00,CLR,,0.00,WeatherDisplay:10.37,2013-07-02 06:57:00,
2013-07-02 03:02:00,72.5,70.0,29.95,South,184,2.3,2.3,92,0.00,CLR,,0.00,WeatherDisplay:10.37,2013-07-02 07:02:00,
2013-07-02 03:07:00,72.5,70.0,29.95,SSE,166,3.5,3.5,92,0.00,CLR,,0.00,WeatherDisplay:10.37,2013-07-02 07:07:00,
2013-07-02 03:12:00,72.4,69.9,29.95,South,170,0.0,0.0,92,0.00,CLR,,0.00,WeatherDisplay:10.37,2013-07-02 07:12:00,
2013-07-02 03:17:00,72.4,70.3,29.95,SSW,198,3.5,3.5,93,0.00,CLR,,0.00,WeatherDisplay:10.37,2013-07-02 07:17:00,
2013-07-02 03:22:00,72.4,70.3,29.95,South,180,3.5,3.5,93,0.00,CLR,,0.00,WeatherDisplay:10.37,2013-07-02 07:22:00,
2013-07-02 03:27:00,72.4,70.3,29.95,South,191,0.0,0.0,93,0.00,CLR,,0.00,WeatherDisplay:10.37,2013-07-02 07:27:00,
2013-07-02 03:32:00,72.4,70.3,29.94,ESE,117,3.5,3.5,93,0.00,CLR,,0.00,WeatherDisplay:10.37,2013-07-02 07:32:00,
2013-07-02 03:37:00,72.4,70.3,29.95,SW,216,3.5,3.5,93,0.00,CLR,,0.00,WeatherDisplay:10.37,2013-07-02 07:37:00,
2013-07-02 03:42:00,72.3,70.2,29.95,SE,132,3.5,3.5,93,0.00,CLR,,0.00,WeatherDisplay:10.37,2013-07-02 07:42:00,
2013-07-02 03:47:00,72.3,70.2,29.95,SE,125,0.0,0.0,93,0.00,CLR,,0.00,WeatherDisplay:10.37,2013-07-02 07:47:00,
2013-07-02 03:52:00,72.3,70.2,29.95,South,182,3.5,3.5,93,0.00,CLR,,0.00,WeatherDisplay:10.37,2013-07-02 07:52:00,
2013-07-02 03:57:00,72.3,70.2,29.95,South,182,0.0,0.0,93,0.00,CLR,,0.00,WeatherDisplay:10.37,2013-07-02 07:57:00,
2013-07-02 04:02:00,72.3,70.2,29.95,SE,132,5.8,5.8,93,0.00,CLR,,0.00,WeatherDisplay:10.37,2013-07-02 08:02:00,
2013-07-02 04:07:00,72.3,70.2,29.95,SSE,152,1.0,0.0,93,0.00,CLR,,0.00,WeatherDisplay:10.37,2013-07-02 08:07:00,
2013-07-02 04:12:00,72.3,70.2,29.95,SE,146,1.2,1.3,93,0.00,CLR,,0.00,WeatherDisplay:10.37,2013-07-02 08:12:00,
2013-07-02 04:17:00,72.3,70.2,29.95,South,175,1.2,0.0,93,0.00,CLR,,0.00,WeatherDisplay:10.37,2013-07-02 08:17:00,
2013-07-02 04:22:00,72.2,70.1,29.96,South,177,3.5,0.0,93,0.00,CLR,,0.00,WeatherDisplay:10.37,2013-07-02 08:22:00,
2013-07-02 04:27:00,72.2,70.1,29.96,SSE,151,0.0,0.0,93,0.00,CLR,,0.00,WeatherDisplay:10.37,2013-07-02 08:27:00,
2013-07-02 04:32:00,72.2,70.1,29.96,SSW,200,0.0,0.0,93,0.00,CLR,,0.00,WeatherDisplay:10.37,2013-07-02 08:32:00,
2013-07-02 04:37:00,72.2,70.1,29.96,SSW,198,4.0,4.0,93,0.00,CLR,,0.00,WeatherDisplay:10.37,2013-07-02 08:37:00,
2013-07-02 04:42:00,72.2,70.1,29.96,South,178,1.2,1.6,93,0.00,CLR,,0.00,WeatherDisplay:10.37,2013-07-02 08:42:00,
2013-07-02 04:47:00,72.2,70.1,29.96,South,175,1.0,1.1,93,0.00,CLR,,0.00,WeatherDisplay:10.37,2013-07-02 08:47:00,
2013-07-02 04:52:00,72.2,70.1,29.96,South,169,2.3,2.3,93,0.00,CLR,,0.00,WeatherDisplay:10.37,2013-07-02 08:52:00,
2013-07-02 04:57:00,72.1,70.0,29.96,South,174,0.0,0.0,93,0.00,CLR,,0.00,WeatherDisplay:10.37,2013-07-02 08:57:00,
2013-07-02 05:02:00,72.1,70.0,29.96,SSW,202,0.0,0.0,93,0.00,CLR,,0.00,WeatherDisplay:10.37,2013-07-02 09:02:00,
2013-07-02 05:07:00,72.1,70.3,29.96,SSW,200,1.2,1.2,94,0.00,CLR,,0.00,WeatherDisplay:10.37,2013-07-02 09:07:00,
2013-07-02 05:12:00,72.1,70.3,29.96,SSW,200,0.0,0.0,94,0.00,CLR,,0.00,WeatherDisplay:10.37,2013-07-02 09:12:00,
2013-07-02 05:17:00,72.1,70.3,29.96,SW,223,1.2,0.0,94,0.00,CLR,,0.00,WeatherDisplay:10.37,2013-07-02 09:17:00,
2013-07-02 05:22:00,72.1,70.3,29.97,SSW,209,4.0,4.0,94,0.00,CLR,,0.00,WeatherDisplay:10.37,2013-07-02 09:22:00,
2013-07-02 05:27:00,72.1,70.3,29.97,East,86,0.0,0.9,94,0.00,CLR,,0.00,WeatherDisplay:10.37,2013-07-02 09:27:00,
2013-07-02 05:32:00,72.1,70.3,29.97,South,171,0.0,0.0,94,0.00,CLR,,0.00,WeatherDisplay:10.37,2013-07-02 09:32:00,
2013-07-02 05:37:00,72.1,70.3,29.97,SSE,148,5.8,5.8,94,0.00,CLR,,0.00,WeatherDisplay:10.37,2013-07-02 09:37:00,
2013-07-02 05:42:00,72.1,70.3,29.97,SSE,148,0.0,0.0,94,0.00,CLR,,0.00,WeatherDisplay:10.37,2013-07-02 09:42:00,
2013-07-02 05:47:00,72.2,70.4,29.97,SSE,148,0.0,0.0,94,0.00,CLR,,0.00,WeatherDisplay:10.37,2013-07-02 09:47:00,
2013-07-02 05:52:00,72.2,70.4,29.97,SE,138,3.5,3.5,94,0.00,CLR,,0.00,WeatherDisplay:10.37,2013-07-02 09:52:00,
2013-07-02 05:57:00,72.2,70.4,29.97,ESE,111,1.0,1.0,94,0.00,CLR,,0.00,WeatherDisplay:10.37,2013-07-02 09:57:00,
2013-07-02 06:02:00,72.2,70.4,29.97,ESE,111,0.0,0.0,94,0.00,CLR,,0.00,WeatherDisplay:10.37,2013-07-02 10:02:00,
2013-07-02 06:07:00,72.2,70.4,29.98,ESE,111,0.0,0.0,94,0.00,CLR,,0.00,WeatherDisplay:10.37,2013-07-02 10:07:00,
2013-07-02 06:12:00,72.2,70.4,29.98,ESE,103,2.0,2.0,94,0.01,RA,,0.01,WeatherDisplay:10.37,2013-07-02 10:12:00,
2013-07-02 06:17:00,72.2,70.4,29.98,South,175,3.5,3.5,94,0.01,RA,,0.01,WeatherDisplay:10.37,2013-07-02 10:17:00,
2013-07-02 06:22:00,72.1,70.3,29.98,SSE,162,4.6,4.6,94,0.01,CLR,,0.01,WeatherDisplay:10.37,2013-07-02 10:22:00,
2013-07-02 06:27:00,72.0,70.2,29.98,SE,144,2.0,2.0,94,0.01,CLR,,0.01,WeatherDisplay:10.37,2013-07-02 10:27:00,
2013-07-02 06:33:00,71.9,70.1,29.98,ESE,109,0.0,0.0,94,0.01,CLR,,0.01,WeatherDisplay:10.37,2013-07-02 10:33:00,
2013-07-02 06:38:00,71.8,70.0,29.99,SE,127,1.2,1.2,94,0.01,CLR,,0.01,WeatherDisplay:10.37,2013-07-02 10:38:00,
2013-07-02 06:43:00,71.8,70.0,29.99,NW,316,3.5,0.0,94,0.01,CLR,,0.01,WeatherDisplay:10.37,2013-07-02 10:43:00,
2013-07-02 06:48:00,71.7,69.9,29.99,WSW,244,3.5,3.5,94,0.01,CLR,,0.01,WeatherDisplay:10.37,2013-07-02 10:48:00,
2013-07-02 06:53:00,71.7,69.9,29.99,SSW,211,4.6,4.6,94,0.01,CLR,,0.01,WeatherDisplay:10.37,2013-07-02 10:53:00,
2013-07-02 06:58:00,71.7,69.9,29.99,SSW,210,0.0,0.0,94,0.01,CLR,,0.01,WeatherDisplay:10.37,2013-07-02 10:58:00,
2013-07-02 07:03:00,71.7,69.9,29.99,SW,236,3.5,3.5,94,0.01,CLR,,0.01,WeatherDisplay:10.37,2013-07-02 11:03:00,
2013-07-02 07:08:00,71.8,70.0,29.99,South,178,0.0,0.1,94,0.01,CLR,,0.01,WeatherDisplay:10.37,2013-07-02 11:08:00,
2013-07-02 07:13:00,71.8,70.0,30.00,NNE,25,0.0,0.0,94,0.00,CLR,,0.01,WeatherDisplay:10.37,2013-07-02 11:13:00,
2013-07-02 07:18:00,71.8,70.0,30.00,SW,233,1.2,1.2,94,0.00,CLR,,0.01,WeatherDisplay:10.37,2013-07-02 11:18:00,
2013-07-02 07:23:00,71.9,70.1,30.00,SSE,167,5.8,5.8,94,0.00,CLR,,0.01,WeatherDisplay:10.37,2013-07-02 11:23:00,
2013-07-02 07:28:00,71.9,70.1,30.00,SE,145,3.5,0.0,94,0.00,CLR,,0.01,WeatherDisplay:10.37,2013-07-02 11:28:00,
2013-07-02 07:33:00,71.9,70.1,30.00,South,184,5.8,5.8,94,0.00,CLR,,0.01,WeatherDisplay:10.37,2013-07-02 11:33:00,
2013-07-02 07:38:00,72.0,70.2,30.00,SSE,159,3.5,3.5,94,0.00,CLR,,0.01,WeatherDisplay:10.37,2013-07-02 11:38:00,
2013-07-02 07:43:00,72.0,70.2,30.00,ESE,112,4.6,4.6,94,0.00,CLR,,0.01,WeatherDisplay:10.37,2013-07-02 11:43:00,
2013-07-02 07:48:00,72.0,70.2,30.00,WNW,283,3.5,3.5,94,0.00,CLR,,0.01,WeatherDisplay:10.37,2013-07-02 11:48:00,
2013-07-02 07:53:00,72.0,70.2,30.01,SE,126,5.0,5.0,94,0.00,CLR,,0.01,WeatherDisplay:10.37,2013-07-02 11:53:00,
2013-07-02 07:58:00,72.0,70.2,30.01,South,183,3.5,3.5,94,0.00,CLR,,0.01,WeatherDisplay:10.37,2013-07-02 11:58:00,
2013-07-02 08:03:00,72.0,70.2,30.01,ESE,118,2.0,2.0,94,0.00,CLR,,0.01,WeatherDisplay:10.37,2013-07-02 12:03:00,
2013-07-02 08:08:00,72.0,70.2,30.01,SSE,156,4.6,4.6,94,0.00,CLR,,0.01,WeatherDisplay:10.37,2013-07-02 12:08:00,
2013-07-02 08:13:00,72.1,70.3,30.01,SSW,192,6.9,6.9,94,0.00,CLR,,0.01,WeatherDisplay:10.37,2013-07-02 12:13:00,
2013-07-02 08:18:00,72.1,70.3,30.01,WSW,257,5.8,5.8,94,0.00,CLR,,0.01,WeatherDisplay:10.37,2013-07-02 12:18:00,
2013-07-02 08:23:00,72.1,70.3,30.01,South,187,5.8,5.8,94,0.00,CLR,,0.01,WeatherDisplay:10.37,2013-07-02 12:23:00,
2013-07-02 08:28:00,72.2,70.4,30.01,ESE,111,4.6,4.6,94,0.00,CLR,,0.01,WeatherDisplay:10.37,2013-07-02 12:28:00,
2013-07-02 08:33:00,72.2,70.4,30.02,SE,142,3.5,3.5,94,0.00,CLR,,0.01,WeatherDisplay:10.37,2013-07-02 12:33:00,
2013-07-02 08:38:00,72.3,70.5,30.02,ESE,113,5.8,5.8,94,0.00,CLR,,0.01,WeatherDisplay:10.37,2013-07-02 12:38:00,
2013-07-02 08:43:00,72.4,70.3,30.02,ENE,77,3.5,3.5,93,0.00,CLR,,0.01,WeatherDisplay:10.37,2013-07-02 12:43:00,
2013-07-02 08:48:00,72.4,70.3,30.02,SE,142,0.0,0.0,93,0.00,CLR,,0.01,WeatherDisplay:10.37,2013-07-02 12:48:00,
2013-07-02 08:53:00,72.4,70.3,30.03,South,184,9.0,9.0,93,0.00,CLR,,0.01,WeatherDisplay:10.37,2013-07-02 12:53:00,
2013-07-02 08:58:00,72.4,70.3,30.02,SSW,198,3.5,3.5,93,0.00,CLR,,0.01,WeatherDisplay:10.37,2013-07-02 12:58:00,
2013-07-02 09:03:00,72.5,70.4,30.03,SE,146,3.5,3.5,93,0.00,CLR,,0.01,WeatherDisplay:10.37,2013-07-02 13:03:00,
2013-07-02 09:08:00,72.6,70.5,30.03,SE,134,6.9,6.9,93,0.00,CLR,,0.01,WeatherDisplay:10.37,2013-07-02 13:08:00,
2013-07-02 09:13:00,72.9,70.8,30.03,SW,222,3.5,3.5,93,0.00,CLR,,0.01,WeatherDisplay:10.37,2013-07-02 13:13:00,
2013-07-02 09:18:00,73.0,70.5,30.03,South,173,8.1,8.1,92,0.00,CLR,,0.01,WeatherDisplay:10.37,2013-07-02 13:18:00,
2013-07-02 09:23:00,73.3,70.8,30.03,ESE,107,5.8,5.8,92,0.00,CLR,,0.01,WeatherDisplay:10.37,2013-07-02 13:23:00,
2013-07-02 09:28:00,73.5,71.0,30.03,SW,226,2.3,2.3,92,0.00,CLR,,0.01,WeatherDisplay:10.37,2013-07-02 13:28:00,
2013-07-02 09:33:00,73.8,71.3,30.03,SW,225,6.0,6.0,92,0.00,CLR,,0.01,WeatherDisplay:10.37,2013-07-02 13:33:00,
2013-07-02 09:38:00,74.1,71.3,30.03,SSE,148,5.8,5.8,91,0.00,CLR,,0.01,WeatherDisplay:10.37,2013-07-02 13:38:00,
2013-07-02 09:43:00,74.4,71.6,30.03,ESE,102,3.5,3.5,91,0.00,CLR,,0.01,WeatherDisplay:10.37,2013-07-02 13:43:00,
2013-07-02 09:48:00,74.5,71.0,30.03,South,187,4.6,4.6,89,0.00,CLR,,0.01,WeatherDisplay:10.37,2013-07-02 13:48:00,
2013-07-02 09:53:00,74.6,71.1,30.03,SSW,204,3.5,3.5,89,0.00,CLR,,0.01,WeatherDisplay:10.37,2013-07-02 13:53:00,
2013-07-02 09:58:00,74.6,71.1,30.03,SE,145,4.6,4.6,89,0.00,CLR,,0.01,WeatherDisplay:10.37,2013-07-02 13:58:00,
2013-07-02 10:03:00,74.6,71.1,30.04,South,181,4.6,4.6,89,0.00,CLR,,0.01,WeatherDisplay:10.37,2013-07-02 14:03:00,
2013-07-02 10:08:00,74.6,71.1,30.04,SE,128,6.9,6.9,89,0.00,CLR,,0.01,WeatherDisplay:10.37,2013-07-02 14:08:00,
2013-07-02 10:13:00,74.6,71.1,30.04,SW,214,4.0,4.0,89,0.00,CLR,,0.01,WeatherDisplay:10.37,2013-07-02 14:13:00,
2013-07-02 10:18:00,74.6,71.1,30.04,South,188,4.6,4.6,89,0.00,CLR,,0.01,WeatherDisplay:10.37,2013-07-02 14:18:00,
2013-07-02 10:23:00,74.7,71.2,30.04,SW,230,8.1,8.1,89,0.00,CLR,,0.01,WeatherDisplay:10.37,2013-07-02 14:23:00,
2013-07-02 10:28:00,74.7,71.2,30.04,SW,229,5.8,5.8,89,0.00,CLR,,0.01,WeatherDisplay:10.37,2013-07-02 14:28:00,
2013-07-02 10:33:00,74.7,71.2,30.04,SW,217,1.2,1.2,89,0.00,CLR,,0.01,WeatherDisplay:10.37,2013-07-02 14:33:00,
2013-07-02 10:38:00,74.8,71.7,30.05,South,172,0.0,0.0,90,0.00,CLR,,0.01,WeatherDisplay:10.37,2013-07-02 14:38:00,
2013-07-02 10:43:00,74.8,71.0,30.05,SSW,211,5.8,5.8,88,0.00,CLR,,0.01,WeatherDisplay:10.37,2013-07-02 14:43:00,
2013-07-02 10:48:00,74.7,70.9,30.05,SW,235,4.0,4.0,88,0.00,CLR,,0.01,WeatherDisplay:10.37,2013-07-02 14:48:00,
2013-07-02 10:53:00,74.7,70.9,30.05,SSE,148,4.0,4.0,88,0.00,CLR,,0.01,WeatherDisplay:10.37,2013-07-02 14:53:00,
2013-07-02 10:58:00,74.9,71.4,30.05,West,264,5.8,5.8,89,0.00,CLR,,0.01,WeatherDisplay:10.37,2013-07-02 14:58:00,
2013-07-02 11:03:00,75.2,71.4,30.05,WSW,257,3.5,3.5,88,0.00,CLR,,0.01,WeatherDisplay:10.37,2013-07-02 15:03:00,
2013-07-02 11:08:00,75.5,71.7,30.05,SW,217,5.0,5.5,88,0.00,CLR,,0.01,WeatherDisplay:10.37,2013-07-02 15:08:00,
2013-07-02 11:13:00,75.7,71.6,30.05,East,88,5.8,5.8,87,0.00,CLR,,0.01,WeatherDisplay:10.37,2013-07-02 15:13:00,
2013-07-02 11:18:00,76.1,71.6,30.05,SW,222,5.8,5.8,86,0.00,CLR,,0.01,WeatherDisplay:10.37,2013-07-02 15:18:00,
2013-07-02 11:23:00,76.4,71.2,30.05,WSW,245,9.2,9.2,84,0.00,CLR,,0.01,WeatherDisplay:10.37,2013-07-02 15:23:00,
2013-07-02 11:28:00,76.7,71.8,30.05,SSE,161,4.0,4.0,85,0.00,CLR,,0.01,WeatherDisplay:10.37,2013-07-02 15:28:00,
2013-07-02 11:33:00,77.0,71.4,30.05,South,190,9.2,9.2,83,0.00,CLR,,0.01,WeatherDisplay:10.37,2013-07-02 15:33:00,
2013-07-02 11:38:00,77.1,71.5,30.05,SW,227,6.0,6.0,83,0.00,CLR,,0.01,WeatherDisplay:10.37,2013-07-02 15:38:00,
2013-07-02 11:43:00,77.4,72.2,30.05,WSW,249,4.0,4.0,84,0.00,CLR,,0.01,WeatherDisplay:10.37,2013-07-02 15:43:00,
2013-07-02 11:48:00,77.7,72.1,30.05,NE,38,10.4,10.4,83,0.00,CLR,,0.01,WeatherDisplay:10.37,2013-07-02 15:48:00,
2013-07-02 11:53:00,78.0,72.1,30.05,WSW,256,11.5,11.5,82,0.00,CLR,,0.01,WeatherDisplay:10.37,2013-07-02 15:53:00,
2013-07-02 11:58:00,78.4,72.8,30.05,South,186,3.5,3.5,83,0.00,CLR,,0.01,WeatherDisplay:10.37,2013-07-02 15:58:00,
2013-07-02 12:03:00,78.9,71.5,30.04,South,173,6.9,6.9,78,0.00,CLR,,0.01,WeatherDisplay:10.37,2013-07-02 16:03:00,
2013-07-02 12:08:00,79.3,72.6,30.04,WSW,252,4.0,4.0,80,0.00,CLR,,0.01,WeatherDisplay:10.37,2013-07-02 16:08:00,
2013-07-02 12:13:00,79.6,71.8,30.04,SSW,194,10.4,10.4,77,0.00,CLR,,0.01,WeatherDisplay:10.37,2013-07-02 16:13:00,
2013-07-02 12:18:00,79.8,71.9,30.04,SSW,206,8.1,8.1,77,0.00,CLR,,0.01,WeatherDisplay:10.37,2013-07-02 16:18:00,
2013-07-02 12:23:00,79.7,71.5,30.04,SE,138,6.9,6.9,76,0.00,CLR,,0.01,WeatherDisplay:10.37,2013-07-02 16:23:00,
2013-07-02 12:28:00,79.7,71.8,30.05,South,182,6.0,6.0,77,0.00,CLR,,0.01,WeatherDisplay:10.37,2013-07-02 16:28:00,
2013-07-02 12:33:00,79.6,71.8,30.05,SSW,202,6.9,6.9,77,0.00,CLR,,0.01,WeatherDisplay:10.37,2013-07-02 16:33:00,
2013-07-02 12:38:00,79.5,72.8,30.05,SE,141,5.8,5.8,80,0.00,CLR,,0.01,WeatherDisplay:10.37,2013-07-02 16:38:00,
2013-07-02 12:43:00,79.0,71.6,30.05,SE,146,11.5,11.5,78,0.00,CLR,,0.01,WeatherDisplay:10.37,2013-07-02 16:43:00,
2013-07-02 12:48:00,78.7,72.0,30.05,SW,215,5.0,5.0,80,0.00,CLR,,0.01,WeatherDisplay:10.37,2013-07-02 16:48:00,
2013-07-02 12:53:00,78.5,71.8,30.05,SE,146,6.9,6.9,80,0.00,CLR,,0.01,WeatherDisplay:10.37,2013-07-02 16:53:00,
2013-07-02 12:58:00,78.5,71.8,30.05,NE,51,11.5,11.5,80,0.00,CLR,,0.01,WeatherDisplay:10.37,2013-07-02 16:58:00,
2013-07-02 13:03:00,78.7,72.0,30.05,SSE,164,10.4,10.4,80,0.00,CLR,,0.01,WeatherDisplay:10.37,2013-07-02 17:03:00,
2013-07-02 13:08:00,78.4,71.7,30.05,SSE,155,6.9,6.9,80,0.00,CLR,,0.01,WeatherDisplay:10.37,2013-07-02 17:08:00,
2013-07-02 13:13:00,78.0,71.7,30.05,SSE,167,5.8,5.8,81,0.00,CLR,,0.01,WeatherDisplay:10.37,2013-07-02 17:13:00,
2013-07-02 13:18:00,77.4,71.1,30.05,East,87,3.5,3.5,81,0.00,CLR,,0.01,WeatherDisplay:10.37,2013-07-02 17:18:00,
2013-07-02 13:23:00,77.0,70.7,30.05,SSE,168,6.9,6.9,81,0.01,RA,,0.02,WeatherDisplay:10.37,2013-07-02 17:23:00,
2013-07-02 13:28:00,76.7,70.8,30.05,South,181,5.0,5.0,82,0.01,RA,,0.02,WeatherDisplay:10.37,2013-07-02 17:28:00,
2013-07-02 13:33:00,76.5,70.9,30.05,ESE,121,5.8,5.8,83,0.01,CLR,,0.02,WeatherDisplay:10.37,2013-07-02 17:33:00,
2013-07-02 13:38:00,76.4,71.2,30.05,SSE,159,3.5,3.5,84,0.01,CLR,,0.02,WeatherDisplay:10.37,2013-07-02 17:38:00,
2013-07-02 13:43:00,76.2,71.4,30.05,SE,127,6.9,6.9,85,0.01,CLR,,0.02,WeatherDisplay:10.37,2013-07-02 17:43:00,
2013-07-02 13:48:00,76.0,71.2,30.05,SSE,156,5.8,5.8,85,0.01,CLR,,0.02,WeatherDisplay:10.37,2013-07-02 17:48:00,
2013-07-02 13:53:00,75.8,71.3,30.05,SE,130,5.8,5.8,86,0.01,CLR,,0.02,WeatherDisplay:10.37,2013-07-02 17:53:00,
2013-07-02 13:58:00,75.9,71.4,30.05,SSW,209,6.9,6.9,86,0.01,CLR,,0.02,WeatherDisplay:10.37,2013-07-02 17:58:00,
2013-07-02 14:03:00,76.5,72.7,30.04,SE,130,5.8,5.8,88,0.01,CLR,,0.02,WeatherDisplay:10.37,2013-07-02 18:03:00,
2013-07-02 14:08:00,77.0,72.1,30.04,SSE,155,2.3,2.3,85,0.01,CLR,,0.02,WeatherDisplay:10.37,2013-07-02 18:08:00,
2013-07-02 14:13:00,77.7,72.1,30.04,SSE,152,9.0,9.0,83,0.01,CLR,,0.02,WeatherDisplay:10.37,2013-07-02 18:13:00,
2013-07-02 14:18:00,78.1,71.8,30.03,ESE,118,5.8,5.8,81,0.01,CLR,,0.02,WeatherDisplay:10.37,2013-07-02 18:18:00,
2013-07-02 14:23:00,78.4,72.1,30.03,SE,132,13.8,13.8,81,0.00,CLR,,0.02,WeatherDisplay:10.37,2013-07-02 18:23:00,
2013-07-02 14:28:00,78.5,71.8,30.03,ESE,106,8.1,8.1,80,0.00,CLR,,0.02,WeatherDisplay:10.37,2013-07-02 18:28:00,
2013-07-02 14:33:00,78.3,71.6,30.03,East,91,3.5,3.5,80,0.00,CLR,,0.02,WeatherDisplay:10.37,2013-07-02 18:33:00,
2013-07-02 14:38:00,78.0,71.7,30.04,ESE,111,6.9,6.9,81,0.00,CLR,,0.02,WeatherDisplay:10.37,2013-07-02 18:38:00,
2013-07-02 14:43:00,77.4,71.8,30.03,South,182,3.5,3.5,83,0.01,RA,,0.03,WeatherDisplay:10.37,2013-07-02 18:43:00,
2013-07-02 14:48:00,76.6,71.7,30.03,SE,125,4.6,4.6,85,0.07,RA,,0.09,WeatherDisplay:10.37,2013-07-02 18:48:00,
2013-07-02 14:53:00,76.0,71.5,30.03,SSW,206,2.3,2.3,86,0.15,RA,,0.17,WeatherDisplay:10.37,2013-07-02 18:53:00,
2013-07-02 14:58:00,75.5,71.7,30.03,South,186,1.2,1.2,88,0.19,RA,,0.21,WeatherDisplay:10.37,2013-07-02 18:58:00,
2013-07-02 15:03:00,75.1,71.3,30.04,SE,142,3.5,3.5,88,0.20,RA,,0.22,WeatherDisplay:10.37,2013-07-02 19:03:00,
2013-07-02 15:08:00,74.6,71.1,30.04,ESE,107,3.5,3.5,89,0.20,RA,,0.22,WeatherDisplay:10.37,2013-07-02 19:08:00,
2013-07-02 15:13:00,74.3,71.2,30.04,ESE,109,3.5,3.5,90,0.23,RA,,0.25,WeatherDisplay:10.37,2013-07-02 19:13:00,
2013-07-02 15:18:00,73.9,70.8,30.04,SE,128,5.8,5.8,90,0.24,RA,,0.26,WeatherDisplay:10.37,2013-07-02 19:18:00,
2013-07-02 15:23:00,73.5,70.7,30.05,South,184,3.5,3.5,91,0.27,RA,,0.29,WeatherDisplay:10.37,2013-07-02 19:23:00,
2013-07-02 15:28:00,73.3,70.8,30.05,SW,233,3.5,3.5,92,0.33,RA,,0.35,WeatherDisplay:10.37,2013-07-02 19:28:00,
2013-07-02 15:33:00,73.1,70.6,30.05,West,267,4.6,4.6,92,0.37,RA,,0.39,WeatherDisplay:10.37,2013-07-02 19:33:00,
2013-07-02 15:38:00,72.8,70.3,30.05,SSE,167,10.4,10.4,92,0.40,RA,,0.42,WeatherDisplay:10.37,2013-07-02 19:38:00,
2013-07-02 15:43:00,72.6,70.1,30.05,SSW,211,6.9,6.9,92,0.39,RA,,0.42,WeatherDisplay:10.37,2013-07-02 19:43:00,
2013-07-02 15:48:00,72.5,70.4,30.05,SW,218,5.0,5.0,93,0.33,,,0.42,WeatherDisplay:10.37,2013-07-02 19:48:00,
2013-07-02 15:53:00,72.5,70.4,30.05,SE,132,5.0,5.0,93,0.26,RA,,0.43,WeatherDisplay:10.37,2013-07-02 19:53:00,
2013-07-02 15:58:00,72.4,70.3,30.05,South,186,6.9,6.9,93,0.22,RA,,0.43,WeatherDisplay:10.37,2013-07-02 19:58:00,
2013-07-02 16:03:00,72.3,70.2,30.05,SSW,207,11.5,11.5,93,0.22,RA,,0.44,WeatherDisplay:10.37,2013-07-02 20:03:00,
2013-07-02 16:08:00,72.2,70.1,30.05,West,263,10.4,10.4,93,0.24,RA,,0.46,WeatherDisplay:10.37,2013-07-02 20:08:00,
2013-07-02 16:13:00,72.1,70.0,30.05,SSW,199,11.5,11.5,93,0.23,RA,,0.48,WeatherDisplay:10.37,2013-07-02 20:13:00,
2013-07-02 16:18:00,71.9,69.8,30.05,SSE,150,11.5,11.5,93,0.23,RA,,0.49,WeatherDisplay:10.37,2013-07-02 20:18:00,
2013-07-02 16:23:00,71.8,69.7,30.05,SW,232,6.9,6.9,93,0.21,RA,,0.50,WeatherDisplay:10.37,2013-07-02 20:23:00,
2013-07-02 16:28:00,71.8,70.0,30.06,SW,214,5.8,5.8,94,0.15,RA,,0.50,WeatherDisplay:10.37,2013-07-02 20:28:00,
2013-07-02 16:33:00,71.8,70.0,30.06,West,262,5.8,5.8,94,0.11,CLR,,0.50,WeatherDisplay:10.37,2013-07-02 20:33:00,
2013-07-02 16:38:00,71.7,69.9,30.06,WSW,257,6.0,6.0,94,0.09,RA,,0.51,WeatherDisplay:10.37,2013-07-02 20:38:00,
2013-07-02 16:43:00,71.6,69.8,30.06,WSW,241,5.8,5.8,94,0.15,RA,,0.57,WeatherDisplay:10.37,2013-07-02 20:43:00,
2013-07-02 16:48:00,71.5,69.7,30.06,SW,227,10.4,10.4,94,0.23,RA,,0.66,WeatherDisplay:10.37,2013-07-02 20:48:00,
2013-07-02 16:53:00,71.3,69.5,30.06,WSW,250,3.5,3.5,94,0.25,RA,,0.69,WeatherDisplay:10.37,2013-07-02 20:53:00,
2013-07-02 16:58:00,71.1,69.3,30.06,WSW,246,5.8,5.8,94,0.29,RA,,0.72,WeatherDisplay:10.37,2013-07-02 20:58:00,
2013-07-02 17:03:00,70.9,69.1,30.06,West,259,3.5,3.5,94,0.34,RA,,0.78,WeatherDisplay:10.37,2013-07-02 21:03:00,
2013-07-02 17:08:00,70.7,68.9,30.05,West,259,0.0,0.0,94,0.38,RA,,0.84,WeatherDisplay:10.37,2013-07-02 21:08:00,
2013-07-02 17:13:00,70.4,68.6,30.06,West,259,3.5,3.5,94,0.38,RA,,0.86,WeatherDisplay:10.37,2013-07-02 21:13:00,
2013-07-02 17:18:00,70.2,68.4,30.06,West,260,4.6,4.6,94,0.42,RA,,0.91,WeatherDisplay:10.37,2013-07-02 21:18:00,
2013-07-02 17:23:00,70.0,68.2,30.06,SW,227,0.0,0.0,94,0.45,RA,,0.95,WeatherDisplay:10.37,2013-07-02 21:23:00,
2013-07-02 17:28:00,69.9,68.1,30.06,SW,232,3.5,3.5,94,0.47,RA,,0.97,WeatherDisplay:10.37,2013-07-02 21:28:00,
2013-07-02 17:33:00,69.8,68.0,30.06,SW,232,0.0,0.0,94,0.48,RA,,0.98,WeatherDisplay:10.37,2013-07-02 21:33:00,
2013-07-02 17:38:00,69.7,67.9,30.05,SW,232,0.0,0.0,94,0.47,RA,,0.98,WeatherDisplay:10.37,2013-07-02 21:38:00,
2013-07-02 17:43:00,69.7,67.9,30.06,SW,232,0.0,0.0,94,0.42,RA,,0.99,WeatherDisplay:10.37,2013-07-02 21:43:00,
2013-07-02 17:48:00,69.6,67.8,30.06,SW,232,0.0,0.0,94,0.34,RA,,0.99,WeatherDisplay:10.37,2013-07-02 21:48:00,
2013-07-02 17:53:00,69.6,67.8,30.06,SW,236,0.0,0.0,94,0.31,CLR,,0.99,WeatherDisplay:10.37,2013-07-02 21:53:00,
2013-07-02 17:58:00,69.7,68.2,30.06,SSW,200,3.5,3.5,95,0.27,CLR,,0.99,WeatherDisplay:10.37,2013-07-02 21:58:00,
2013-07-02 18:03:00,70.1,68.6,30.06,ESE,115,3.5,3.5,95,0.21,CLR,,0.99,WeatherDisplay:10.37,2013-07-02 22:03:00,
2013-07-02 18:08:00,70.4,68.9,30.06,SE,139,0.0,0.0,95,0.15,CLR,,0.99,WeatherDisplay:10.37,2013-07-02 22:08:00,
2013-07-02 18:13:00,70.6,69.1,30.06,SE,142,4.6,4.6,95,0.13,CLR,,0.99,WeatherDisplay:10.37,2013-07-02 22:13:00,
2013-07-02 18:18:00,70.8,69.3,30.06,NW,319,0.0,0.0,95,0.08,CLR,,0.99,WeatherDisplay:10.37,2013-07-02 22:18:00,
2013-07-02 18:23:00,70.9,69.7,30.07,SSW,211,7.0,7.0,96,0.04,CLR,,0.99,WeatherDisplay:10.37,2013-07-02 22:23:00,
2013-07-02 18:28:00,71.0,69.5,30.06,North,360,3.5,3.5,95,0.02,CLR,,0.99,WeatherDisplay:10.37,2013-07-02 22:28:00,
2013-07-02 18:33:00,71.1,69.6,30.07,SE,145,0.0,0.0,95,0.01,CLR,,0.99,WeatherDisplay:10.37,2013-07-02 22:33:00,
2013-07-02 18:38:00,71.3,69.8,30.07,ESE,108,9.2,9.2,95,0.01,CLR,,0.99,WeatherDisplay:10.37,2013-07-02 22:38:00,
2013-07-02 18:43:00,71.3,69.8,30.07,South,183,0.0,0.0,95,0.00,CLR,,0.99,WeatherDisplay:10.37,2013-07-02 22:43:00,
2013-07-02 18:48:00,71.5,70.0,30.07,SSE,161,0.0,0.0,95,0.00,CLR,,0.99,WeatherDisplay:10.37,2013-07-02 22:48:00,
2013-07-02 18:53:00,71.6,70.4,30.07,ESE,123,1.2,1.2,96,0.00,CLR,,0.99,WeatherDisplay:10.37,2013-07-02 22:53:00,
2013-07-02 18:58:00,71.6,70.1,30.07,ESE,120,1.2,0.0,95,0.00,CLR,,0.99,WeatherDisplay:10.37,2013-07-02 22:58:00,
2013-07-02 19:03:00,71.7,70.2,30.08,South,169,0.0,0.0,95,0.00,CLR,,0.99,WeatherDisplay:10.37,2013-07-02 23:03:00,
2013-07-02 19:08:00,71.9,70.4,30.08,SSE,165,0.0,0.0,95,0.00,CLR,,0.99,WeatherDisplay:10.37,2013-07-02 23:08:00,
2013-07-02 19:13:00,71.9,70.4,30.08,SW,225,3.5,3.5,95,0.00,CLR,,0.99,WeatherDisplay:10.37,2013-07-02 23:13:00,
2013-07-02 19:18:00,72.0,70.5,30.08,South,171,1.2,0.0,95,0.00,CLR,,0.99,WeatherDisplay:10.37,2013-07-02 23:18:00,
2013-07-02 19:23:00,72.1,70.6,30.08,SE,141,2.0,2.0,95,0.00,CLR,,0.99,WeatherDisplay:10.37,2013-07-02 23:23:00,
2013-07-02 19:28:00,72.1,70.6,30.08,SSE,150,1.2,1.2,95,0.00,CLR,,0.99,WeatherDisplay:10.37,2013-07-02 23:28:00,
2013-07-02 19:29:00,72.1,70.6,30.08,SSE,159,3.5,3.5,95,0.00,CLR,,0.99,WeatherDisplay:10.37,2013-07-02 23:29:00,
2013-07-02 19:34:00,72.1,70.6,30.08,South,169,3.5,3.5,95,0.00,CLR,,0.99,WeatherDisplay:10.37,2013-07-02 23:34:00,
2013-07-02 19:39:00,72.2,70.7,30.09,South,172,2.3,2.3,95,0.00,CLR,,0.99,WeatherDisplay:10.37,2013-07-02 23:39:00,
2013-07-02 19:44:00,72.2,70.7,30.09,South,184,5.8,5.8,95,0.00,CLR,,0.99,WeatherDisplay:10.37,2013-07-02 23:44:00,
2013-07-02 19:49:00,72.2,70.7,30.09,ESE,123,0.0,0.0,95,0.00,CLR,,0.99,WeatherDisplay:10.37,2013-07-02 23:49:00,
2013-07-02 19:54:00,72.2,70.7,30.09,SSW,208,4.0,4.0,95,0.00,CLR,,0.99,WeatherDisplay:10.37,2013-07-02 23:54:00,
2013-07-02 19:59:00,72.2,70.7,30.09,SE,126,0.0,0.0,95,0.00,CLR,,0.99,WeatherDisplay:10.37,2013-07-02 23:59:00,
2013-07-02 20:02:00,72.1,70.3,30.09,SE,126,3.5,3.5,94,0.00,CLR,,0.99,WeatherDisplay:10.37,2013-07-03 00:02:00,
2013-07-02 20:06:00,72.1,70.3,30.09,SE,146,3.5,3.5,94,0.00,CLR,,0.99,WeatherDisplay:10.37,2013-07-03 00:06:00,
2013-07-02 20:11:00,72.1,70.3,30.09,SE,136,3.5,3.5,94,0.00,CLR,,0.99,WeatherDisplay:10.37,2013-07-03 00:11:00,
2013-07-02 20:16:00,72.0,70.2,30.09,SE,126,3.5,3.5,94,0.00,CLR,,0.99,WeatherDisplay:10.37,2013-07-03 00:16:00,
2013-07-02 20:21:00,72.0,70.2,30.09,SSE,160,5.0,5.0,94,0.00,CLR,,0.99,WeatherDisplay:10.37,2013-07-03 00:21:00,
2013-07-02 20:23:00,71.9,70.1,30.09,SSE,155,3.5,3.5,94,0.00,CLR,,0.99,WeatherDisplay:10.37,2013-07-03 00:23:00,
2013-07-02 20:24:00,71.9,70.1,30.09,South,177,3.5,3.5,94,0.00,CLR,,0.99,WeatherDisplay:10.37,2013-07-03 00:24:00,
2013-07-02 20:28:00,71.9,70.1,30.09,SSE,156,0.0,0.0,94,0.00,CLR,,0.99,WeatherDisplay:10.37,2013-07-03 00:28:00,
2013-07-02 20:33:00,71.8,70.0,30.09,SSE,156,0.0,0.0,94,0.00,CLR,,0.99,WeatherDisplay:10.37,2013-07-03 00:33:00,
2013-07-02 20:38:00,71.8,70.0,30.10,South,183,4.0,4.0,94,0.00,CLR,,0.99,WeatherDisplay:10.37,2013-07-03 00:38:00,
2013-07-02 20:43:00,71.7,69.9,30.10,SSE,158,3.5,3.5,94,0.00,CLR,,0.99,WeatherDisplay:10.37,2013-07-03 00:43:00,
2013-07-02 20:48:00,71.7,69.9,30.10,SSE,157,1.2,1.2,94,0.00,CLR,,0.99,WeatherDisplay:10.37,2013-07-03 00:48:00,
2013-07-02 20:53:00,71.6,69.8,30.10,SE,140,2.3,2.3,94,0.00,CLR,,0.99,WeatherDisplay:10.37,2013-07-03 00:53:00,
2013-07-02 20:58:00,71.6,69.8,30.10,SSE,150,0.0,0.0,94,0.00,CLR,,0.99,WeatherDisplay:10.37,2013-07-03 00:58:00,
2013-07-02 21:01:00,71.6,69.8,30.10,SSE,150,0.0,0.0,94,0.00,CLR,,0.99,WeatherDisplay:10.37,2013-07-03 01:01:00,
2013-07-02 21:03:00,71.5,69.7,30.10,South,179,3.5,3.5,94,0.00,CLR,,0.99,WeatherDisplay:10.37,2013-07-03 01:03:00,
2013-07-02 21:08:00,71.5,69.7,30.11,South,180,0.0,0.0,94,0.00,CLR,,0.99,WeatherDisplay:10.37,2013-07-03 01:08:00,
2013-07-02 21:09:00,71.5,69.7,30.11,SSW,194,2.0,2.0,94,0.00,CLR,,0.99,WeatherDisplay:10.37,2013-07-03 01:09:00,
2013-07-02 21:14:00,71.4,69.6,30.11,SSE,165,0.0,0.0,94,0.00,CLR,,0.99,WeatherDisplay:10.37,2013-07-03 01:14:00,
2013-07-02 21:19:00,71.4,69.6,30.11,SSE,164,0.0,0.0,94,0.00,CLR,,0.99,WeatherDisplay:10.37,2013-07-03 01:19:00,
2013-07-02 21:24:00,71.3,69.5,30.11,SSE,165,0.0,0.0,94,0.00,CLR,,0.99,WeatherDisplay:10.37,2013-07-03 01:24:00,
2013-07-02 21:26:00,71.3,69.5,30.11,SSE,165,0.0,0.0,94,0.00,CLR,,0.99,WeatherDisplay:10.37,2013-07-03 01:26:00,
2013-07-02 21:31:00,71.3,69.5,30.11,SSE,167,2.3,2.3,94,0.00,CLR,,0.99,WeatherDisplay:10.37,2013-07-03 01:31:00,
2013-07-02 21:36:00,71.3,69.5,30.11,SE,144,0.0,0.0,94,0.00,CLR,,0.99,WeatherDisplay:10.37,2013-07-03 01:36:00,
2013-07-02 21:41:00,71.3,69.5,30.11,South,178,0.0,0.0,94,0.00,CLR,,0.99,WeatherDisplay:10.37,2013-07-03 01:41:00,
2013-07-02 21:46:00,71.3,69.5,30.11,South,178,0.0,0.0,94,0.00,CLR,,0.99,WeatherDisplay:10.37,2013-07-03 01:46:00,
2013-07-02 21:49:00,71.3,69.5,30.11,South,178,0.0,0.0,94,0.00,CLR,,0.99,WeatherDisplay:10.37,2013-07-03 01:49:00,
2013-07-02 21:50:00,71.3,69.5,30.11,South,178,0.0,0.0,94,0.00,CLR,,0.99,WeatherDisplay:10.37,2013-07-03 01:50:00,
2013-07-02 21:55:00,71.3,69.5,30.11,South,178,0.0,0.0,94,0.00,CLR,,0.99,WeatherDisplay:10.37,2013-07-03 01:55:00,
2013-07-02 22:01:00,71.3,69.5,30.11,South,178,0.0,0.0,94,0.00,CLR,,0.99,WeatherDisplay:10.37,2013-07-03 02:01:00,
2013-07-02 22:06:00,71.3,69.5,30.12,South,178,0.0,0.0,94,0.00,CLR,,0.99,WeatherDisplay:10.37,2013-07-03 02:06:00,
2013-07-02 22:11:00,71.3,69.5,30.12,South,178,0.0,0.0,94,0.00,CLR,,0.99,WeatherDisplay:10.37,2013-07-03 02:11:00,
2013-07-02 22:16:00,71.3,69.5,30.12,South,178,4.0,4.0,94,0.00,CLR,,0.99,WeatherDisplay:10.37,2013-07-03 02:16:00,
2013-07-02 22:21:00,71.3,69.5,30.12,SW,223,4.6,4.6,94,0.00,CLR,,0.99,WeatherDisplay:10.37,2013-07-03 02:21:00,
2013-07-02 22:26:00,71.3,69.5,30.12,SE,138,0.0,0.0,94,0.00,CLR,,0.99,WeatherDisplay:10.37,2013-07-03 02:26:00,
2013-07-02 22:31:00,71.3,69.5,30.12,South,184,0.0,0.0,94,0.00,CLR,,0.99,WeatherDisplay:10.37,2013-07-03 02:31:00,
2013-07-02 22:33:00,71.3,69.5,30.12,South,180,3.5,3.5,94,0.00,CLR,,0.99,WeatherDisplay:10.37,2013-07-03 02:33:00,
2013-07-02 22:38:00,71.3,69.5,30.12,South,180,0.0,0.0,94,0.00,CLR,,0.99,WeatherDisplay:10.37,2013-07-03 02:38:00,
2013-07-02 22:44:00,71.3,69.5,30.12,South,179,0.0,0.0,94,0.00,CLR,,0.99,WeatherDisplay:10.37,2013-07-03 02:44:00,
2013-07-02 22:46:00,71.3,69.5,30.12,South,180,0.0,0.0,94,0.00,CLR,,0.99,WeatherDisplay:10.37,2013-07-03 02:46:00,
2013-07-02 22:51:00,71.3,69.5,30.13,South,179,0.0,0.0,94,0.00,CLR,,0.99,WeatherDisplay:10.37,2013-07-03 02:51:00,
2013-07-02 22:57:00,71.3,69.8,30.13,South,180,0.0,0.0,95,0.00,CLR,,0.99,WeatherDisplay:10.37,2013-07-03 02:57:00,
2013-07-02 23:03:00,71.3,69.8,30.13,South,179,0.0,0.0,95,0.00,CLR,,0.99,WeatherDisplay:10.37,2013-07-03 03:03:00,
2013-07-02 23:08:00,71.3,69.8,30.13,South,180,0.0,0.0,95,0.00,CLR,,0.99,WeatherDisplay:10.37,2013-07-03 03:08:00,
2013-07-02 23:13:00,71.3,69.8,30.13,South,179,0.0,0.5,95,0.00,CLR,,0.99,WeatherDisplay:10.37,2013-07-03 03:13:00,
2013-07-02 23:19:00,71.3,69.8,30.13,South,179,0.0,0.0,95,0.00,CLR,,0.99,WeatherDisplay:10.37,2013-07-03 03:19:00,
2013-07-02 23:20:00,71.3,69.8,30.12,South,179,1.0,0.0,95,0.00,CLR,,0.99,WeatherDisplay:10.37,2013-07-03 03:20:00,
2013-07-02 23:25:00,71.3,69.8,30.12,South,179,2.3,2.3,95,0.00,CLR,,0.99,WeatherDisplay:10.37,2013-07-03 03:25:00,
2013-07-02 23:31:00,71.3,69.8,30.12,South,179,0.0,0.0,95,0.00,CLR,,0.99,WeatherDisplay:10.37,2013-07-03 03:31:00,
2013-07-02 23:35:00,71.3,69.8,30.12,South,179,1.2,1.2,95,0.00,CLR,,0.99,WeatherDisplay:10.37,2013-07-03 03:35:00,
2013-07-02 23:39:00,71.3,69.8,30.12,South,179,0.0,0.1,95,0.00,CLR,,0.99,WeatherDisplay:10.37,2013-07-03 03:39:00,
2013-07-02 23:44:00,71.3,69.8,30.12,South,179,0.0,0.0,95,0.00,CLR,,0.99,WeatherDisplay:10.37,2013-07-03 03:44:00,
2013-07-02 23:49:00,71.3,69.8,30.12,South,179,1.0,1.0,95,0.00,CLR,,0.99,WeatherDisplay:10.37,2013-07-03 03:49:00,
2013-07-02 23:50:00,71.3,69.8,30.12,South,179,1.2,1.2,95,0.00,CLR,,0.99,WeatherDisplay:10.37,2013-07-03 03:50:00,
2013-07-02 23:55:00,71.3,69.8,30.12,South,179,0.0,0.0,95,0.00,CLR,,0.99,WeatherDisplay:10.37,2013-07-03 03:55:00,